Watauga, Texas
Current Conditions -  °F | °C
As of 6:53 AM on Sunday 21 Dec 2014 (Local Time) from KFTW Reporting Station
Haze Haze  
Wind Chill: 44°   Ceiling: 2000
Heat Index: 48°   Visibility: 5mi
Dew Point: 44°   Wind: 9mph
Humidity: 86%   Direction: 150°SSE
Pressure: 30.09"   Gusts: NA
Location:  32.8687°N, 97.2516°W
Report Text: KFTW 211253Z 15008KT 5SM BR OVC020 09/07 A3009 RMK AO2 SLP188 T00890067
Loading
Personal Weather Stations






























Interactive Weather Map New forecast layout! Learn more

10-Day Weather Forecast

Advertisements
Track Severe Weather on mobile